createdAt,value
2018-02-05T00:00:12.640Z,3.60
2018-02-05T00:02:41.121Z,3.60
2018-02-05T00:05:09.305Z,3.50
2018-02-05T00:07:37.543Z,3.50
2018-02-05T00:10:05.534Z,3.50
2018-02-05T00:12:34.013Z,3.60
2018-02-05T00:15:02.395Z,3.50
2018-02-05T00:17:30.894Z,3.50
2018-02-05T00:20:00.193Z,3.50
2018-02-05T00:22:29.174Z,3.50
2018-02-05T00:24:57.754Z,3.60
2018-02-05T00:27:26.314Z,3.60
2018-02-05T00:29:54.654Z,3.60
2018-02-05T00:32:22.794Z,3.70
2018-02-05T00:34:51.373Z,3.70
2018-02-05T00:37:19.755Z,3.70
2018-02-05T00:39:48.233Z,3.70
2018-02-05T00:42:17.342Z,3.70
2018-02-05T00:44:46.273Z,3.70
2018-02-05T00:47:14.652Z,3.70
2018-02-05T00:49:43.074Z,3.60
2018-02-05T00:52:13.053Z,3.80
2018-02-05T00:54:41.335Z,3.70
2018-02-05T00:57:09.514Z,3.70
2018-02-05T00:59:37.913Z,3.70
2018-02-05T01:02:05.953Z,3.70
2018-02-05T01:04:34.133Z,3.80
2018-02-05T01:07:02.434Z,3.80
2018-02-05T01:09:31.613Z,3.90
2018-02-05T01:11:59.794Z,3.80
2018-02-05T01:14:28.394Z,3.90
2018-02-05T01:16:57.374Z,3.80
2018-02-05T01:19:25.633Z,3.80
2018-02-05T01:21:54.133Z,3.70
2018-02-05T01:24:22.293Z,3.80
2018-02-05T01:26:50.774Z,3.70
2018-02-05T01:29:18.954Z,3.70
2018-02-05T01:31:47.333Z,3.70
2018-02-05T01:34:15.714Z,3.70
2018-02-05T01:36:43.774Z,3.70
2018-02-05T01:39:12.373Z,3.80
2018-02-05T01:41:41.633Z,3.80
2018-02-05T01:44:10.034Z,3.80
2018-02-05T01:46:38.593Z,3.80
2018-02-05T01:49:07.093Z,3.70
2018-02-05T01:51:35.334Z,3.70
2018-02-05T01:54:03.954Z,3.60
2018-02-05T01:56:32.114Z,3.60
2018-02-05T01:59:00.474Z,3.60
2018-02-05T02:01:28.773Z,3.50
2018-02-05T02:03:56.833Z,3.60
2018-02-05T02:06:25.075Z,3.70
2018-02-05T02:08:53.413Z,3.60
2018-02-05T02:11:22.713Z,3.60
2018-02-05T02:13:51.074Z,3.60
2018-02-05T02:16:19.014Z,3.60
2018-02-05T02:18:47.134Z,3.50
2018-02-05T02:21:16.135Z,3.50
2018-02-05T02:23:45.194Z,3.50
2018-02-05T02:26:13.274Z,3.50
2018-02-05T02:28:41.455Z,3.40
2018-02-05T02:31:10.518Z,3.50
2018-02-05T02:33:38.614Z,3.50
2018-02-05T02:36:07.093Z,3.50
2018-02-05T02:38:35.434Z,3.50
2018-02-05T02:41:03.634Z,3.50
2018-02-05T02:43:32.014Z,3.50
2018-02-05T02:46:00.274Z,3.40
2018-02-05T02:48:28.576Z,3.50
2018-02-05T02:50:56.733Z,3.40
2018-02-05T02:53:25.013Z,3.40
2018-02-05T02:55:53.398Z,3.40
2018-02-05T02:58:21.474Z,3.30
2018-02-05T03:00:50.157Z,3.30
2018-02-05T03:03:18.234Z,3.20
2018-02-05T03:05:46.713Z,3.20
2018-02-05T03:08:15.237Z,3.20
2018-02-05T03:10:43.774Z,3.20
2018-02-05T03:13:12.254Z,3.20
2018-02-05T03:15:40.633Z,3.10
2018-02-05T03:18:09.073Z,3.20
2018-02-05T03:20:37.494Z,3.10
2018-02-05T03:23:05.733Z,3.10
2018-02-05T03:25:34.215Z,3.10
2018-02-05T03:28:02.594Z,3.00
2018-02-05T03:30:30.914Z,2.90
2018-02-05T03:33:00.174Z,2.90
2018-02-05T03:35:28.433Z,2.90
2018-02-05T03:37:56.733Z,2.90
2018-02-05T03:40:25.174Z,2.80
2018-02-05T03:42:53.514Z,2.80
2018-02-05T03:45:22.594Z,2.80
2018-02-05T03:47:50.874Z,2.80
2018-02-05T03:50:19.133Z,2.80
2018-02-05T03:52:47.214Z,2.80
2018-02-05T03:55:16.317Z,2.70
2018-02-05T03:57:45.474Z,2.70
2018-02-05T04:00:13.873Z,2.70
2018-02-05T04:02:42.254Z,2.70
2018-02-05T04:05:10.473Z,2.60
2018-02-05T04:07:38.814Z,2.70
2018-02-05T04:10:06.874Z,2.70
2018-02-05T04:12:35.153Z,2.70
2018-02-05T04:15:03.534Z,2.70
2018-02-05T04:17:31.813Z,2.70
2018-02-05T04:20:00.174Z,2.70
2018-02-05T04:22:28.674Z,2.70
2018-02-05T04:24:57.054Z,2.70
2018-02-05T04:27:26.453Z,2.50
2018-02-05T04:29:55.033Z,2.50
2018-02-05T04:32:23.534Z,2.50
2018-02-05T04:34:52.514Z,2.60
2018-02-05T04:37:21.494Z,2.50
2018-02-05T04:39:50.074Z,2.50
2018-02-05T04:42:18.253Z,2.50
2018-02-05T04:44:46.613Z,2.40
2018-02-05T04:47:14.793Z,2.40
2018-02-05T04:49:43.075Z,2.40
2018-02-05T04:52:11.654Z,2.40
2018-02-05T04:54:40.023Z,2.40
2018-02-05T04:57:08.513Z,2.40
2018-02-05T04:59:36.753Z,2.40
2018-02-05T05:02:05.174Z,2.40
2018-02-05T05:04:33.553Z,2.40
2018-02-05T05:07:02.854Z,2.30
2018-02-05T05:09:31.013Z,2.30
2018-02-05T05:12:00.114Z,2.40
2018-02-05T05:14:29.413Z,2.40
2018-02-05T05:16:57.693Z,2.40
2018-02-05T05:19:25.753Z,2.30
2018-02-05T05:21:54.334Z,2.30
2018-02-05T05:24:22.714Z,2.30
2018-02-05T05:26:51.193Z,2.30
2018-02-05T05:29:19.397Z,2.30
2018-02-05T05:31:47.713Z,2.30
2018-02-05T05:34:15.906Z,2.30
2018-02-05T05:36:44.290Z,2.30
2018-02-05T05:39:12.559Z,2.20
2018-02-05T05:41:40.595Z,2.30
2018-02-05T05:44:08.914Z,2.30
2018-02-05T05:46:38.095Z,2.20
2018-02-05T05:49:06.582Z,2.20
2018-02-05T05:51:35.167Z,2.20
2018-02-05T05:54:03.450Z,2.20
2018-02-05T05:56:31.610Z,2.30
2018-02-05T05:59:00.111Z,2.40
2018-02-05T06:01:28.330Z,2.40
2018-02-05T06:03:56.730Z,2.40
2018-02-05T06:06:25.650Z,2.50
2018-02-05T06:08:54.091Z,2.40
2018-02-05T06:11:22.650Z,2.50
2018-02-05T06:13:50.790Z,2.50
2018-02-05T06:16:20.071Z,2.70
2018-02-05T06:18:48.550Z,2.70
2018-02-05T06:21:16.770Z,2.70
2018-02-05T06:23:45.112Z,2.70
2018-02-05T06:26:13.771Z,2.60
2018-02-05T06:28:42.170Z,2.50
2018-02-05T06:31:11.771Z,2.50
2018-02-05T06:33:40.150Z,2.50
2018-02-05T06:36:08.437Z,2.50
2018-02-05T06:38:36.612Z,2.50
2018-02-05T06:41:05.030Z,2.50
2018-02-05T06:43:33.250Z,2.50
2018-02-05T06:46:01.771Z,2.50
2018-02-05T06:48:29.977Z,2.50
2018-02-05T06:51:09.961Z,2.50
2018-02-05T06:53:49.963Z,2.60
2018-02-05T06:56:25.709Z,2.50
2018-02-05T06:58:54.161Z,2.40
2018-02-05T07:01:23.252Z,2.40
2018-02-05T07:03:52.449Z,2.40
2018-02-05T07:06:21.747Z,2.30
2018-02-05T07:08:50.528Z,2.30
2018-02-05T07:11:18.687Z,2.30
2018-02-05T07:13:46.867Z,2.30
2018-02-05T07:16:15.047Z,2.30
2018-02-05T07:18:43.307Z,2.40
2018-02-05T07:21:11.489Z,2.40
2018-02-05T07:23:39.868Z,2.30
2018-02-05T07:26:07.927Z,2.40
2018-02-05T07:28:36.207Z,2.30
2018-02-05T07:31:04.614Z,2.30
2018-02-05T07:33:33.647Z,2.40
2018-02-05T07:36:01.888Z,2.40
2018-02-05T07:38:30.950Z,2.40
2018-02-05T07:40:59.407Z,2.30
2018-02-05T07:43:28.030Z,2.40
2018-02-05T07:45:57.527Z,2.50
2018-02-05T07:48:26.147Z,2.40
2018-02-05T07:50:54.708Z,2.50
2018-02-05T07:53:24.207Z,2.50
2018-02-05T07:55:53.589Z,2.50
2018-02-05T07:58:22.073Z,2.40
2018-02-05T08:00:50.725Z,2.50
2018-02-05T08:03:19.125Z,2.50
2018-02-05T08:05:47.406Z,2.60
2018-02-05T08:08:15.539Z,2.70
2018-02-05T08:10:43.747Z,2.70
2018-02-05T08:13:12.224Z,2.80
2018-02-05T08:15:40.685Z,2.90
2018-02-05T08:18:08.965Z,2.90
2018-02-05T08:20:37.364Z,3.00
2018-02-05T08:23:05.628Z,3.10
2018-02-05T08:25:33.787Z,3.10
2018-02-05T08:28:02.088Z,3.00
2018-02-05T08:30:30.167Z,3.20
2018-02-05T08:32:59.248Z,3.30
2018-02-05T08:35:27.748Z,3.30
2018-02-05T08:37:57.028Z,3.40
2018-02-05T08:40:25.207Z,3.40
2018-02-05T08:42:53.489Z,3.40
2018-02-05T08:45:21.767Z,3.40
2018-02-05T08:47:50.027Z,3.50
2018-02-05T08:50:18.208Z,3.60
2018-02-05T08:52:46.267Z,3.70
2018-02-05T08:55:14.648Z,3.60
2018-02-05T08:57:42.947Z,3.60
2018-02-05T09:00:12.088Z,3.60
2018-02-05T09:02:40.607Z,3.50
2018-02-05T09:05:09.288Z,3.70
2018-02-05T09:07:37.687Z,3.80
2018-02-05T09:10:06.488Z,3.80
2018-02-05T09:12:35.668Z,3.80
2018-02-05T09:15:05.088Z,3.90
2018-02-05T09:17:33.307Z,3.80
2018-02-05T09:20:01.568Z,3.90
2018-02-05T09:22:29.988Z,3.80
2018-02-05T09:24:58.267Z,3.90
2018-02-05T09:27:26.407Z,3.90
2018-02-05T09:29:54.907Z,3.90
2018-02-05T09:32:23.187Z,4.00
2018-02-05T09:34:52.166Z,3.90
2018-02-05T09:37:20.468Z,3.80
2018-02-05T09:39:49.547Z,3.90
2018-02-05T09:42:17.728Z,3.90
2018-02-05T09:44:46.208Z,4.10
2018-02-05T09:47:15.041Z,4.30
2018-02-05T09:49:43.367Z,4.30
2018-02-05T09:52:11.569Z,4.30
2018-02-05T09:54:40.668Z,4.20
2018-02-05T09:57:09.108Z,4.20
2018-02-05T09:59:37.388Z,4.30
2018-02-05T10:02:05.768Z,4.20
2018-02-05T10:04:34.048Z,4.30
2018-02-05T10:07:02.107Z,4.40
2018-02-05T10:09:30.200Z,4.50
2018-02-05T10:11:59.487Z,4.60
2018-02-05T10:14:28.167Z,4.70
2018-02-05T10:16:56.788Z,4.90
2018-02-05T10:19:25.348Z,5.00
2018-02-05T10:21:54.629Z,5.20
2018-02-05T10:24:22.667Z,5.20
2018-02-05T10:26:50.907Z,5.20
2018-02-05T10:29:19.357Z,5.00
2018-02-05T10:31:47.777Z,5.10
2018-02-05T10:34:15.962Z,5.20
2018-02-05T10:36:44.403Z,5.10
2018-02-05T10:39:13.282Z,5.10
2018-02-05T10:41:41.684Z,5.10
2018-02-05T10:44:10.745Z,5.10
2018-02-05T10:46:39.024Z,5.00
2018-02-05T10:49:07.460Z,5.10
2018-02-05T10:51:36.101Z,5.20
2018-02-05T10:54:05.165Z,5.10
2018-02-05T10:56:33.660Z,5.10
2018-02-05T10:59:01.820Z,5.10
2018-02-05T11:01:30.120Z,5.20
2018-02-05T11:03:59.621Z,5.20
2018-02-05T11:06:27.881Z,5.20
2018-02-05T11:08:56.407Z,5.20
2018-02-05T11:11:25.066Z,5.20
2018-02-05T11:13:53.425Z,5.30
2018-02-05T11:16:21.926Z,5.50
2018-02-05T11:18:50.386Z,5.60
2018-02-05T11:21:18.806Z,5.70
2018-02-05T11:23:48.086Z,5.90
2018-02-05T11:26:17.006Z,6.00
2018-02-05T11:28:45.446Z,6.00
2018-02-05T11:31:13.926Z,6.10
2018-02-05T11:33:43.526Z,7.00
2018-02-05T11:36:11.801Z,7.00
2018-02-05T11:38:39.967Z,7.00
2018-02-05T11:41:08.246Z,6.90
2018-02-05T11:43:36.547Z,6.80
2018-02-05T11:46:05.726Z,6.60
2018-02-05T11:48:34.413Z,6.50
2018-02-05T11:51:03.368Z,6.30
2018-02-05T11:53:31.679Z,6.30
2018-02-05T11:56:00.059Z,6.30
2018-02-05T11:58:28.299Z,6.40
2018-02-05T12:00:57.017Z,6.40
2018-02-05T12:03:25.499Z,6.40
2018-02-05T12:05:54.457Z,6.20
2018-02-05T12:08:23.179Z,6.20
2018-02-05T12:10:51.621Z,6.20
2018-02-05T12:13:20.041Z,6.30
2018-02-05T12:15:49.541Z,6.30
2018-02-05T12:18:17.721Z,6.30
2018-02-05T12:20:47.463Z,6.50
2018-02-05T12:23:15.901Z,6.50
2018-02-05T12:25:44.242Z,6.20
2018-02-05T12:28:12.423Z,6.10
2018-02-05T12:30:40.621Z,6.10
2018-02-05T12:33:08.982Z,6.00
2018-02-05T12:35:37.382Z,6.00
2018-02-05T12:38:05.760Z,6.10
2018-02-05T12:40:35.121Z,6.00
2018-02-05T12:43:03.641Z,6.00
2018-02-05T12:45:32.101Z,6.00
2018-02-05T12:48:00.500Z,5.90
2018-02-05T12:50:29.021Z,5.90
2018-02-05T12:52:57.661Z,5.80
2018-02-05T12:55:26.364Z,5.70
2018-02-05T12:57:55.961Z,5.70
2018-02-05T13:00:35.201Z,5.70
2018-02-05T13:03:23.922Z,5.80
2018-02-05T13:06:08.404Z,5.70
2018-02-05T13:08:37.945Z,5.80
2018-02-05T13:11:06.361Z,5.80
2018-02-05T13:13:34.861Z,5.90
2018-02-05T13:16:03.282Z,6.10
2018-02-05T13:18:31.903Z,6.10
2018-02-05T13:21:00.363Z,6.10
2018-02-05T13:23:28.881Z,6.10
2018-02-05T13:25:57.282Z,6.10
2018-02-05T13:28:26.484Z,6.10
2018-02-05T13:30:55.601Z,6.20
2018-02-05T13:33:23.681Z,6.20
2018-02-05T13:35:52.002Z,6.30
2018-02-05T13:38:21.143Z,6.40
2018-02-05T13:40:49.661Z,6.40
2018-02-05T13:43:17.841Z,6.40
2018-02-05T13:45:46.120Z,6.50
2018-02-05T13:48:14.401Z,6.60
2018-02-05T13:50:42.869Z,6.50
2018-02-05T13:53:11.225Z,6.60
2018-02-05T13:55:39.620Z,6.50
2018-02-05T13:58:08.061Z,6.40
2018-02-05T14:00:36.501Z,6.50
2018-02-05T14:03:05.579Z,6.40
2018-02-05T14:05:33.859Z,6.40
2018-02-05T14:08:01.980Z,6.40
2018-02-05T14:10:30.460Z,6.50
2018-02-05T14:12:58.900Z,6.40
2018-02-05T14:15:28.020Z,6.40
2018-02-05T14:17:56.659Z,6.40
2018-02-05T14:20:24.980Z,6.40
2018-02-05T14:22:53.304Z,6.40
2018-02-05T14:25:21.839Z,6.30
2018-02-05T14:27:50.179Z,6.20
2018-02-05T14:30:18.301Z,6.10
2018-02-05T14:32:46.720Z,6.10
2018-02-05T14:35:15.090Z,6.20
2018-02-05T14:37:43.370Z,6.20
2018-02-05T14:40:11.711Z,6.20
2018-02-05T14:42:40.149Z,6.20
2018-02-05T14:45:08.410Z,6.20
2018-02-05T14:47:36.810Z,6.30
2018-02-05T14:50:06.655Z,6.20
2018-02-05T14:52:34.772Z,6.20
2018-02-05T14:55:03.101Z,6.30
2018-02-05T14:57:31.319Z,6.30
2018-02-05T14:59:59.720Z,6.30
2018-02-05T15:02:29.239Z,6.20
2018-02-05T15:04:57.800Z,6.20
2018-02-05T15:07:26.159Z,6.20
2018-02-05T15:09:54.860Z,6.20
2018-02-05T15:12:23.239Z,6.20
2018-02-05T15:14:51.820Z,6.20
2018-02-05T15:17:21.320Z,6.20
2018-02-05T15:19:50.479Z,6.30
2018-02-05T15:22:18.897Z,6.20
2018-02-05T15:24:48.500Z,6.20
2018-02-05T15:27:17.179Z,6.20
2018-02-05T15:29:45.659Z,6.20
2018-02-05T15:32:13.939Z,6.10
2018-02-05T15:34:42.219Z,6.10
2018-02-05T15:37:10.598Z,6.10
2018-02-05T15:39:38.793Z,6.20
2018-02-05T15:42:07.761Z,6.20
2018-02-05T15:44:35.898Z,6.10
2018-02-05T15:47:04.455Z,6.10
2018-02-05T15:49:32.910Z,6.20
2018-02-05T15:52:02.989Z,6.10
2018-02-05T15:54:31.387Z,6.20
2018-02-05T15:57:01.007Z,6.10
2018-02-05T15:59:30.756Z,6.10
2018-02-05T16:02:00.010Z,6.10
2018-02-05T16:04:29.528Z,6.10
2018-02-05T16:06:58.751Z,6.00
2018-02-05T16:09:27.191Z,6.00
2018-02-05T16:11:55.491Z,5.90
2018-02-05T16:14:24.648Z,5.80
2018-02-05T16:16:53.128Z,5.80
2018-02-05T16:19:21.548Z,5.70
2018-02-05T16:21:50.713Z,5.60
2018-02-05T16:24:19.093Z,5.60
2018-02-05T16:26:49.111Z,5.80
2018-02-05T16:29:18.214Z,5.80
2018-02-05T16:31:47.172Z,5.70
2018-02-05T16:34:15.632Z,5.70
2018-02-05T16:36:43.940Z,5.60
2018-02-05T16:39:12.218Z,5.60
2018-02-05T16:41:40.498Z,5.60
2018-02-05T16:44:08.978Z,5.50
2018-02-05T16:46:37.601Z,5.50
2018-02-05T16:49:05.856Z,5.40
2018-02-05T16:51:34.836Z,5.30
2018-02-05T16:54:04.750Z,5.30
2018-02-05T16:56:34.149Z,5.20
2018-02-05T16:59:02.828Z,5.20
2018-02-05T17:01:32.537Z,5.10
2018-02-05T17:04:00.926Z,5.10
2018-02-05T17:06:29.327Z,5.00
2018-02-05T17:08:57.367Z,4.90
2018-02-05T17:11:25.416Z,4.90
2018-02-05T17:13:53.615Z,4.90
2018-02-05T17:16:22.218Z,4.90
2018-02-05T17:18:51.065Z,5.00
2018-02-05T17:21:19.525Z,5.00
2018-02-05T17:23:47.945Z,5.00
2018-02-05T17:26:16.007Z,5.00
2018-02-05T17:28:44.105Z,4.90
2018-02-05T17:31:13.332Z,4.90
2018-02-05T17:33:41.555Z,4.80
2018-02-05T17:36:09.734Z,4.80
2018-02-05T17:38:38.213Z,4.80
2018-02-05T17:41:07.513Z,4.70
2018-02-05T17:43:36.189Z,4.70
2018-02-05T17:46:04.350Z,4.70
2018-02-05T17:48:32.750Z,4.70
2018-02-05T17:51:01.095Z,4.70
2018-02-05T17:53:29.330Z,4.70
2018-02-05T17:55:57.782Z,4.80
2018-02-05T17:58:26.182Z,4.80
2018-02-05T18:00:54.543Z,4.80
2018-02-05T18:03:23.602Z,4.70
2018-02-05T18:05:51.802Z,4.70
2018-02-05T18:08:20.083Z,4.60
2018-02-05T18:10:48.364Z,4.60
2018-02-05T18:13:16.723Z,4.60
2018-02-05T18:15:45.103Z,4.60
2018-02-05T18:18:13.362Z,4.60
2018-02-05T18:20:41.583Z,4.60
2018-02-05T18:23:10.383Z,4.60
2018-02-05T18:25:38.623Z,4.60
2018-02-05T18:28:07.609Z,4.60
2018-02-05T18:30:35.884Z,4.50
2018-02-05T18:33:04.382Z,4.50
2018-02-05T18:35:33.363Z,4.40
2018-02-05T18:38:01.723Z,4.30
2018-02-05T18:40:29.983Z,4.40
2018-02-05T18:42:58.482Z,4.40
2018-02-05T18:45:26.684Z,4.40
2018-02-05T18:47:56.023Z,4.20
2018-02-05T18:50:24.683Z,4.30
2018-02-05T18:52:53.165Z,4.20
2018-02-05T18:55:22.764Z,4.30
2018-02-05T18:57:51.323Z,4.30
2018-02-05T19:00:31.683Z,4.30
2018-02-05T19:03:00.362Z,4.20
2018-02-05T19:05:28.943Z,4.20
2018-02-05T19:07:57.484Z,4.20
2018-02-05T19:10:25.903Z,4.20
2018-02-05T19:12:54.302Z,4.20
2018-02-05T19:15:23.363Z,4.10
2018-02-05T19:17:51.543Z,4.10
2018-02-05T19:20:19.763Z,4.00
2018-02-05T19:22:48.003Z,4.10
2018-02-05T19:25:16.283Z,4.00
2018-02-05T19:27:45.483Z,4.00
2018-02-05T19:30:14.483Z,4.00
2018-02-05T19:32:43.662Z,3.90
2018-02-05T19:35:11.783Z,3.90
2018-02-05T19:37:39.823Z,3.90
2018-02-05T19:40:08.883Z,3.80
2018-02-05T19:42:37.210Z,3.90
2018-02-05T19:45:05.443Z,3.90
2018-02-05T19:47:33.727Z,3.80
2018-02-05T19:50:02.704Z,3.90
2018-02-05T19:52:30.883Z,3.90
2018-02-05T19:54:59.043Z,3.90
2018-02-05T19:57:27.222Z,4.00
2018-02-05T19:59:55.403Z,4.00
2018-02-05T20:02:23.543Z,4.00
2018-02-05T20:04:52.283Z,4.00
2018-02-05T20:07:21.683Z,3.90
2018-02-05T20:09:50.863Z,3.80
2018-02-05T20:12:19.403Z,3.80
2018-02-05T20:14:47.723Z,3.70
2018-02-05T20:17:16.304Z,3.70
2018-02-05T20:19:44.725Z,3.60
2018-02-05T20:22:12.854Z,3.10
2018-02-05T20:24:41.338Z,3.60
2018-02-05T20:27:10.336Z,3.60
2018-02-05T20:29:39.636Z,3.60
2018-02-05T20:32:08.979Z,3.60
2018-02-05T20:34:37.296Z,3.60
2018-02-05T20:37:05.576Z,3.60
2018-02-05T20:39:33.796Z,3.60
2018-02-05T20:42:02.237Z,3.70
2018-02-05T20:44:30.757Z,3.70
2018-02-05T20:46:59.397Z,3.70
2018-02-05T20:49:27.777Z,3.70
2018-02-05T20:51:56.077Z,3.70
2018-02-05T20:54:25.237Z,3.60
2018-02-05T20:56:53.596Z,3.60
2018-02-05T20:59:21.775Z,3.60
2018-02-05T21:01:49.959Z,3.60
2018-02-05T21:04:18.355Z,3.50
2018-02-05T21:06:47.235Z,3.40
2018-02-05T21:09:15.516Z,3.40
2018-02-05T21:11:43.776Z,3.40
2018-02-05T21:14:12.056Z,3.30
2018-02-05T21:16:40.335Z,3.30
2018-02-05T21:19:08.716Z,3.20
2018-02-05T21:21:36.876Z,3.20
2018-02-05T21:24:05.077Z,3.20
2018-02-05T21:26:34.036Z,3.20
2018-02-05T21:29:02.936Z,3.20
2018-02-05T21:31:31.817Z,3.30
2018-02-05T21:34:00.197Z,3.20
2018-02-05T21:36:28.717Z,3.30
2018-02-05T21:38:58.096Z,3.30
2018-02-05T21:41:26.616Z,3.30
2018-02-05T21:43:55.075Z,3.20
2018-02-05T21:46:23.695Z,3.20
2018-02-05T21:48:51.995Z,3.30
2018-02-05T21:51:20.456Z,3.30
2018-02-05T21:53:49.276Z,3.30
2018-02-05T21:56:17.416Z,3.40
2018-02-05T21:58:45.936Z,3.30
2018-02-05T22:01:14.816Z,3.30
2018-02-05T22:03:43.195Z,3.30
2018-02-05T22:06:11.579Z,3.40
2018-02-05T22:08:39.937Z,3.30
2018-02-05T22:11:08.517Z,3.30
2018-02-05T22:13:37.014Z,3.20
2018-02-05T22:16:05.213Z,3.10
2018-02-05T22:18:34.395Z,3.10
2018-02-05T22:21:02.655Z,3.10
2018-02-05T22:23:31.033Z,3.10
2018-02-05T22:25:59.434Z,3.00
2018-02-05T22:28:28.542Z,3.10
2018-02-05T22:30:56.750Z,3.10
2018-02-05T22:33:24.954Z,3.00
2018-02-05T22:35:53.494Z,3.00
2018-02-05T22:38:21.594Z,3.00
2018-02-05T22:40:49.880Z,3.10
2018-02-05T22:43:18.382Z,3.10
2018-02-05T22:45:47.477Z,3.00
2018-02-05T22:48:15.934Z,3.00
2018-02-05T22:50:44.535Z,3.00
2018-02-05T22:53:13.948Z,3.10
2018-02-05T22:55:43.333Z,3.00
2018-02-05T22:58:11.715Z,3.00
2018-02-05T23:00:40.113Z,3.00
2018-02-05T23:03:09.174Z,3.00
2018-02-05T23:05:37.554Z,3.00
2018-02-05T23:08:06.015Z,3.00
2018-02-05T23:10:34.503Z,3.00
2018-02-05T23:13:02.773Z,3.00
2018-02-05T23:15:31.294Z,3.00
2018-02-05T23:18:00.573Z,3.00
2018-02-05T23:20:28.833Z,2.90
2018-02-05T23:22:57.014Z,3.00
2018-02-05T23:25:25.394Z,2.90
2018-02-05T23:27:53.754Z,2.90
2018-02-05T23:30:22.114Z,2.90
2018-02-05T23:32:50.320Z,2.80
2018-02-05T23:35:18.604Z,2.80
2018-02-05T23:37:47.147Z,2.80
2018-02-05T23:40:15.331Z,2.80
2018-02-05T23:42:43.950Z,2.80
2018-02-05T23:45:13.148Z,2.70
2018-02-05T23:47:42.326Z,2.70
2018-02-05T23:50:10.387Z,2.70
2018-02-05T23:52:38.788Z,2.70
2018-02-05T23:55:07.367Z,2.70
2018-02-05T23:57:35.548Z,2.80
